Time;durP1;ratioP1;P1;durP2;ratioP2;P2;SDS_P1;SDS_P2;PMS_P1;PMS_P2;Temp;Humidity;BMP_temperature;BMP_pressure;BME280_temperature;BME280_humidity;BME280_pressure;Samples;Min_cycle;Max_cycle;Signal;HPM_P1;HPM_P2
2023/04/15 00:00:10;;;;;;;12.77;6.47;;;5.30;99.90;;;;;;4958218;28;20436;-75
2023/04/15 00:02:37;;;;;;;11.07;5.80;;;5.20;99.90;;;;;;4943763;28;20476;-75
2023/04/15 00:05:04;;;;;;;11.35;6.32;;;5.20;99.90;;;;;;4967943;28;20050;-75
2023/04/15 00:07:30;;;;;;;10.63;5.75;;;5.20;99.90;;;;;;4951933;28;20030;-75
2023/04/15 00:09:57;;;;;;;9.00;5.20;;;5.20;99.90;;;;;;4970486;28;20037;-76
2023/04/15 00:12:26;;;;;;;10.73;5.68;;;5.10;99.90;;;;;;4970141;28;20101;-75
2023/04/15 00:14:53;;;;;;;9.63;5.82;;;5.10;99.90;;;;;;4971371;28;20282;-76
2023/04/15 00:17:19;;;;;;;9.88;5.47;;;5.00;99.90;;;;;;4977109;28;20046;-75
2023/04/15 00:19:45;;;;;;;11.02;6.00;;;5.10;99.90;;;;;;4954256;28;20504;-75
2023/04/15 00:22:11;;;;;;;8.20;5.70;;;5.00;99.90;;;;;;4971660;28;20089;-76
2023/04/15 00:24:38;;;;;;;9.20;5.78;;;4.90;99.90;;;;;;4959604;28;20060;-76
2023/04/15 00:27:04;;;;;;;12.30;5.90;;;4.90;99.90;;;;;;4952414;28;20140;-76
2023/04/15 00:29:30;;;;;;;9.45;5.60;;;4.90;99.90;;;;;;4956530;28;20045;-76
2023/04/15 00:31:56;;;;;;;12.77;5.70;;;4.90;99.90;;;;;;4957900;28;20044;-76
2023/04/15 00:34:22;;;;;;;13.88;5.72;;;4.90;99.90;;;;;;4954042;28;20397;-76
2023/04/15 00:36:49;;;;;;;7.32;5.72;;;4.90;99.90;;;;;;4952991;28;20041;-76
2023/04/15 00:39:17;;;;;;;8.80;5.43;;;4.80;99.90;;;;;;4957975;28;20049;-75
2023/04/15 00:41:44;;;;;;;11.73;6.40;;;4.80;99.90;;;;;;4938353;28;20042;-75
2023/04/15 00:44:10;;;;;;;9.23;5.47;;;4.80;99.90;;;;;;4970234;28;20121;-75
2023/04/15 00:46:37;;;;;;;11.35;5.65;;;4.70;99.90;;;;;;4943730;28;20129;-75
2023/04/15 00:49:04;;;;;;;14.13;5.90;;;4.70;99.90;;;;;;4950141;28;20108;-75
2023/04/15 00:51:32;;;;;;;12.95;5.85;;;4.70;99.90;;;;;;4946023;28;20038;-75
2023/04/15 00:53:59;;;;;;;8.27;5.28;;;4.60;99.90;;;;;;4943852;28;20038;-76
2023/04/15 00:56:25;;;;;;;13.57;6.43;;;4.60;99.90;;;;;;4960924;28;20119;-75
2023/04/15 00:58:51;;;;;;;10.93;6.15;;;4.60;99.90;;;;;;4954549;28;20392;-75
2023/04/15 01:01:23;;;;;;;10.55;6.53;;;4.60;99.90;;;;;;4967676;28;20042;-75
2023/04/15 01:03:50;;;;;;;10.88;6.32;;;4.50;99.90;;;;;;4951980;28;20046;-75
2023/04/15 01:06:16;;;;;;;10.13;6.10;;;4.50;99.90;;;;;;4936146;28;20562;-76
2023/04/15 01:08:42;;;;;;;13.32;6.40;;;4.50;99.90;;;;;;4966526;28;20045;-75
2023/04/15 01:11:09;;;;;;;10.27;6.20;;;4.50;99.90;;;;;;4951412;28;20038;-75
2023/04/15 01:13:36;;;;;;;16.23;6.65;;;4.40;99.90;;;;;;4968038;28;20041;-75
2023/04/15 01:16:02;;;;;;;9.38;6.63;;;4.40;99.90;;;;;;4975332;28;20109;-75
2023/04/15 01:18:28;;;;;;;11.23;6.63;;;4.40;99.90;;;;;;4949952;28;20166;-76
2023/04/15 01:20:54;;;;;;;12.05;6.70;;;4.40;99.90;;;;;;4970184;28;20050;-76
2023/04/15 01:23:22;;;;;;;15.18;7.00;;;4.40;99.90;;;;;;4985375;28;20411;-76
2023/04/15 01:25:49;;;;;;;12.18;6.85;;;4.30;99.90;;;;;;4976313;28;20039;-76
2023/04/15 01:28:15;;;;;;;13.48;6.75;;;4.30;99.90;;;;;;4972829;28;20030;-76
2023/04/15 01:30:41;;;;;;;12.50;6.80;;;4.20;99.90;;;;;;4987044;28;20038;-76
2023/04/15 01:33:06;;;;;;;12.07;6.55;;;4.30;99.90;;;;;;4955904;28;20039;-76
2023/04/15 01:35:32;;;;;;;15.63;7.40;;;4.30;99.90;;;;;;4955625;28;20120;-76
2023/04/15 01:38:07;;;;;;;13.55;7.68;;;4.20;99.90;;;;;;4941825;28;20457;-76
2023/04/15 01:40:33;;;;;;;10.88;7.30;;;4.10;99.90;;;;;;4957555;28;20159;-76
2023/04/15 01:43:00;;;;;;;13.38;7.63;;;4.10;99.90;;;;;;4951269;28;20038;-76
2023/04/15 01:45:26;;;;;;;15.52;7.65;;;4.20;99.90;;;;;;4937435;28;20074;-76
2023/04/15 01:47:52;;;;;;;14.60;7.40;;;4.10;99.90;;;;;;4963657;28;20300;-76
2023/04/15 01:50:19;;;;;;;12.65;8.15;;;4.10;99.90;;;;;;4966509;28;20108;-76
2023/04/15 01:52:45;;;;;;;18.65;8.40;;;4.00;99.90;;;;;;4936219;28;20132;-76
2023/04/15 01:55:12;;;;;;;11.20;7.05;;;4.00;99.90;;;;;;4952130;28;20042;-76
2023/04/15 01:57:38;;;;;;;15.85;7.95;;;4.00;99.90;;;;;;4951785;28;20074;-76
2023/04/15 02:00:04;;;;;;;13.43;7.90;;;4.00;99.90;;;;;;4966301;28;20104;-76
2023/04/15 02:02:30;;;;;;;15.45;8.10;;;4.00;99.90;;;;;;4968191;28;20571;-76
2023/04/15 02:04:55;;;;;;;12.98;7.68;;;4.00;99.90;;;;;;4949040;28;20082;-76
2023/04/15 02:07:21;;;;;;;15.57;8.65;;;4.00;99.90;;;;;;4958056;28;20512;-76
2023/04/15 02:09:47;;;;;;;17.85;8.50;;;4.10;99.90;;;;;;4956660;28;20046;-76
2023/04/15 02:12:12;;;;;;;13.40;7.88;;;4.00;99.90;;;;;;4939109;28;20077;-76
2023/04/15 02:14:38;;;;;;;15.80;8.00;;;4.20;99.90;;;;;;4952507;28;20053;-76
2023/04/15 02:17:07;;;;;;;12.52;8.63;;;4.00;99.90;;;;;;4942302;28;20581;-76
2023/04/15 02:19:35;;;;;;;20.10;8.05;;;4.00;99.90;;;;;;4954132;28;20467;-76
2023/04/15 02:22:01;;;;;;;11.85;8.07;;;4.00;99.90;;;;;;4967976;28;20133;-76
2023/04/15 02:24:29;;;;;;;11.15;7.25;;;4.00;99.90;;;;;;4928515;28;20567;-76
2023/04/15 02:26:55;;;;;;;13.80;8.18;;;4.00;99.90;;;;;;4951198;28;20435;-76
2023/04/15 02:29:22;;;;;;;22.90;9.20;;;4.00;99.90;;;;;;4967526;28;20495;-75
2023/04/15 02:31:48;;;;;;;17.13;9.50;;;4.10;99.90;;;;;;4950335;28;20046;-76
2023/04/15 02:34:14;;;;;;;16.85;9.30;;;4.00;99.90;;;;;;4950998;28;20408;-76
2023/04/15 02:36:39;;;;;;;14.20;8.82;;;4.00;99.90;;;;;;4949790;28;20143;-76
2023/04/15 02:39:05;;;;;;;13.77;8.93;;;4.00;99.90;;;;;;4939670;28;20042;-76
2023/04/15 02:41:31;;;;;;;17.50;9.43;;;4.00;99.90;;;;;;4966562;28;20492;-76
2023/04/15 02:43:57;;;;;;;14.43;9.48;;;4.00;99.90;;;;;;4967542;28;21430;-76
2023/04/15 02:46:23;;;;;;;14.77;9.30;;;4.00;99.90;;;;;;4951681;28;20129;-76
2023/04/15 02:48:49;;;;;;;17.27;9.57;;;4.00;99.90;;;;;;4965261;28;20141;-76
2023/04/15 02:51:18;;;;;;;16.35;9.93;;;4.00;99.90;;;;;;4971237;28;20052;-76
2023/04/15 02:53:45;;;;;;;19.27;10.20;;;3.90;99.90;;;;;;4938422;28;20117;-76
2023/04/15 02:56:11;;;;;;;13.00;9.38;;;3.90;99.90;;;;;;4950868;28;20042;-76
2023/04/15 02:58:38;;;;;;;16.27;10.20;;;3.90;99.90;;;;;;4924302;28;20121;-76
2023/04/15 03:01:04;;;;;;;17.73;9.57;;;3.90;99.90;;;;;;4966442;28;20510;-76
2023/04/15 03:03:29;;;;;;;18.38;9.73;;;3.80;99.90;;;;;;4968470;28;20034;-76
2023/04/15 03:05:55;;;;;;;18.42;9.93;;;3.80;99.90;;;;;;4938621;28;20133;-76
2023/04/15 03:08:21;;;;;;;17.52;9.75;;;3.80;99.90;;;;;;4951327;28;20121;-76
2023/04/15 03:10:47;;;;;;;16.42;9.40;;;3.70;99.90;;;;;;4966544;28;20030;-76
2023/04/15 03:13:13;;;;;;;18.83;10.80;;;3.70;99.90;;;;;;4951160;28;20066;-76
2023/04/15 03:15:39;;;;;;;16.30;10.07;;;3.70;99.90;;;;;;4950174;28;20559;-75
2023/04/15 03:18:04;;;;;;;21.08;11.00;;;3.60;99.90;;;;;;4967930;28;20505;-76
2023/04/15 03:20:30;;;;;;;15.30;10.25;;;3.60;99.90;;;;;;4969788;28;20416;-76
2023/04/15 03:22:56;;;;;;;21.67;11.68;;;3.60;99.90;;;;;;4919424;28;20066;-76
2023/04/15 03:25:22;;;;;;;18.13;10.98;;;3.80;99.90;;;;;;4951725;28;20038;-76
2023/04/15 03:27:47;;;;;;;21.83;11.20;;;3.50;99.90;;;;;;4951677;28;20142;-76
2023/04/15 03:30:13;;;;;;;21.90;10.88;;;3.50;99.90;;;;;;4918520;28;21469;-76
2023/04/15 03:32:39;;;;;;;19.80;11.55;;;3.50;99.90;;;;;;4949892;28;20039;-76
2023/04/15 03:35:05;;;;;;;17.83;11.20;;;3.50;99.90;;;;;;4966425;28;20098;-76
2023/04/15 03:37:31;;;;;;;21.52;11.30;;;3.40;99.90;;;;;;4966406;28;20127;-76
2023/04/15 03:39:56;;;;;;;22.27;11.15;;;3.40;99.90;;;;;;4938183;28;20046;-76
2023/04/15 03:42:22;;;;;;;22.73;10.88;;;3.40;99.90;;;;;;4952200;28;20034;-76
2023/04/15 03:44:48;;;;;;;19.23;11.00;;;3.40;99.90;;;;;;4980277;28;20133;-76
2023/04/15 03:47:14;;;;;;;21.23;11.32;;;3.40;99.90;;;;;;4950827;28;20042;-76
2023/04/15 03:49:40;;;;;;;16.73;10.45;;;3.40;99.90;;;;;;4952813;28;20081;-76
2023/04/15 03:52:05;;;;;;;17.88;10.35;;;3.40;99.90;;;;;;4951993;28;20117;-76
2023/04/15 03:54:31;;;;;;;19.35;10.07;;;3.30;99.90;;;;;;4950071;28;20093;-76
2023/04/15 03:56:57;;;;;;;16.25;10.85;;;3.20;99.90;;;;;;4951120;28;20046;-75
2023/04/15 03:59:22;;;;;;;15.10;9.77;;;3.20;99.90;;;;;;4967627;28;20121;-76
2023/04/15 04:01:48;;;;;;;16.75;10.82;;;3.20;99.90;;;;;;4966940;28;20046;-76
2023/04/15 04:04:14;;;;;;;16.00;9.60;;;3.10;99.90;;;;;;4949702;28;20404;-76
2023/04/15 04:06:40;;;;;;;17.33;10.82;;;3.10;99.90;;;;;;4936268;28;20376;-76
2023/04/15 04:09:06;;;;;;;17.58;10.50;;;3.20;99.90;;;;;;4956006;28;20541;-76
2023/04/15 04:11:32;;;;;;;18.95;11.32;;;3.00;99.90;;;;;;4969115;28;20041;-76
2023/04/15 04:13:57;;;;;;;19.05;10.77;;;3.10;99.90;;;;;;4954869;28;20187;-76
2023/04/15 04:16:23;;;;;;;22.52;11.80;;;3.10;99.90;;;;;;4954121;28;20500;-76
2023/04/15 04:18:49;;;;;;;18.77;11.05;;;3.10;99.90;;;;;;4969694;28;20503;-76
2023/04/15 04:21:15;;;;;;;20.77;11.85;;;3.00;99.90;;;;;;4941053;28;20070;-76
2023/04/15 04:23:41;;;;;;;22.17;12.50;;;3.00;99.90;;;;;;4970121;28;20411;-76
2023/04/15 04:26:07;;;;;;;20.60;12.35;;;3.00;99.90;;;;;;4970898;28;20038;-76
2023/04/15 04:28:34;;;;;;;22.80;13.10;;;3.00;99.90;;;;;;4957218;28;20349;-76
2023/04/15 04:31:00;;;;;;;22.88;11.50;;;3.00;99.90;;;;;;4967693;28;20101;-76
2023/04/15 04:33:25;;;;;;;25.40;12.35;;;3.00;99.90;;;;;;4955475;28;20066;-76
2023/04/15 04:35:51;;;;;;;23.27;12.30;;;3.10;99.90;;;;;;4956273;28;20077;-76
2023/04/15 04:38:17;;;;;;;22.65;12.75;;;3.00;99.90;;;;;;4941770;28;20038;-76
2023/04/15 04:40:42;;;;;;;24.15;13.55;;;3.00;99.90;;;;;;4955502;28;20081;-76
2023/04/15 04:43:08;;;;;;;30.20;13.50;;;3.00;99.90;;;;;;4971001;28;20054;-76
2023/04/15 04:45:35;;;;;;;26.00;13.35;;;3.00;99.90;;;;;;4939984;28;20150;-77
2023/04/15 04:48:00;;;;;;;25.35;13.13;;;3.10;99.90;;;;;;4984836;28;20054;-76
2023/04/15 04:50:26;;;;;;;23.65;13.32;;;3.10;99.90;;;;;;4953329;28;20574;-77
2023/04/15 04:52:52;;;;;;;26.40;14.43;;;3.10;99.90;;;;;;4969350;28;20154;-76
2023/04/15 04:55:17;;;;;;;25.63;13.77;;;3.20;99.90;;;;;;4920494;28;20039;-77
2023/04/15 04:57:43;;;;;;;25.65;13.50;;;3.20;99.90;;;;;;4952931;28;20143;-76
2023/04/15 05:00:09;;;;;;;28.27;13.80;;;3.30;99.90;;;;;;4971040;28;20038;-76
2023/04/15 05:02:35;;;;;;;28.77;13.88;;;3.30;99.90;;;;;;4967959;28;20042;-76
2023/04/15 05:05:01;;;;;;;30.55;13.82;;;3.40;99.90;;;;;;4943198;28;20034;-76
2023/04/15 05:07:26;;;;;;;28.60;14.57;;;3.40;99.90;;;;;;4972929;28;20038;-76
2023/04/15 05:09:52;;;;;;;24.15;12.65;;;3.40;99.90;;;;;;4942785;28;20483;-76
2023/04/15 05:12:18;;;;;;;26.38;13.93;;;3.40;99.90;;;;;;4950652;28;20038;-76
2023/04/15 05:14:45;;;;;;;28.20;14.95;;;3.50;99.90;;;;;;4955849;28;20508;-76
2023/04/15 05:17:11;;;;;;;31.35;15.00;;;3.50;99.90;;;;;;4932576;28;20046;-76
2023/04/15 05:19:37;;;;;;;26.35;14.38;;;3.50;99.90;;;;;;4951786;28;20097;-76
2023/04/15 05:22:02;;;;;;;27.02;14.65;;;3.60;99.90;;;;;;4951297;28;20061;-76
2023/04/15 05:24:28;;;;;;;29.95;15.30;;;3.80;99.90;;;;;;4970854;28;20512;-76
2023/04/15 05:26:55;;;;;;;27.58;15.60;;;3.60;99.90;;;;;;4953828;28;20045;-76
2023/04/15 05:29:20;;;;;;;32.55;15.55;;;3.60;99.90;;;;;;4954823;28;20042;-76
2023/04/15 05:31:46;;;;;;;33.00;15.95;;;3.70;99.90;;;;;;4955970;28;20042;-76
2023/04/15 05:34:14;;;;;;;31.15;15.30;;;3.70;99.90;;;;;;4970063;28;20491;-76
2023/04/15 05:36:40;;;;;;;31.73;16.65;;;3.70;99.90;;;;;;4953458;28;20058;-76
2023/04/15 05:39:06;;;;;;;32.83;16.13;;;3.70;99.90;;;;;;4939034;28;20054;-76
2023/04/15 05:41:31;;;;;;;27.67;14.65;;;3.80;99.90;;;;;;4944858;28;20443;-76
2023/04/15 05:43:57;;;;;;;28.58;15.18;;;3.80;99.90;;;;;;4969235;28;20069;-76
2023/04/15 05:46:23;;;;;;;30.50;15.88;;;3.80;99.90;;;;;;4939117;28;20069;-76
2023/04/15 05:48:49;;;;;;;29.55;15.60;;;3.80;99.90;;;;;;4981516;28;20046;-76
2023/04/15 05:51:14;;;;;;;33.28;14.90;;;3.90;99.90;;;;;;4969142;28;20045;-76
2023/04/15 05:53:40;;;;;;;29.40;14.90;;;4.00;99.90;;;;;;4942693;28;20410;-76
2023/04/15 05:56:06;;;;;;;31.92;17.00;;;4.00;99.90;;;;;;4935511;28;20030;-76
2023/04/15 05:58:32;;;;;;;33.65;15.43;;;4.20;99.90;;;;;;4962880;28;20582;-76
2023/04/15 06:00:58;;;;;;;27.48;15.90;;;4.10;99.90;;;;;;4951523;28;20073;-76
2023/04/15 06:03:24;;;;;;;28.45;14.93;;;4.40;99.90;;;;;;4950336;28;20508;-76
2023/04/15 06:05:49;;;;;;;32.70;16.42;;;4.30;99.90;;;;;;4952590;28;20426;-76
2023/04/15 06:08:15;;;;;;;27.10;15.52;;;4.40;99.90;;;;;;4968899;28;20038;-76
2023/04/15 06:10:41;;;;;;;32.25;15.55;;;4.40;99.90;;;;;;4935002;28;20057;-76
2023/04/15 06:13:07;;;;;;;29.17;16.60;;;4.50;99.90;;;;;;4937729;28;20082;-77
2023/04/15 06:15:33;;;;;;;32.28;16.63;;;4.50;99.90;;;;;;4935562;28;20125;-76
2023/04/15 06:17:58;;;;;;;36.10;17.35;;;4.70;99.90;;;;;;4966725;28;20097;-76
2023/04/15 06:20:25;;;;;;;28.25;14.73;;;4.70;99.90;;;;;;4950109;28;20062;-76
2023/04/15 06:22:51;;;;;;;32.25;17.65;;;4.80;99.90;;;;;;4939278;28;20590;-76
2023/04/15 06:25:17;;;;;;;29.55;15.82;;;4.90;99.90;;;;;;4978148;28;21381;-76
2023/04/15 06:27:42;;;;;;;28.05;15.25;;;5.00;99.90;;;;;;4957355;28;20084;-76
2023/04/15 06:30:08;;;;;;;29.88;15.93;;;5.10;99.90;;;;;;4952283;28;20038;-76
2023/04/15 06:32:34;;;;;;;29.33;15.82;;;5.20;99.90;;;;;;4972133;28;20129;-76
2023/04/15 06:35:00;;;;;;;29.25;16.05;;;5.30;99.90;;;;;;4955001;28;20440;-75
2023/04/15 06:37:26;;;;;;;26.42;14.77;;;5.40;99.90;;;;;;4956530;28;20049;-76
2023/04/15 06:39:51;;;;;;;27.63;15.40;;;5.40;99.90;;;;;;4981415;28;20038;-76
2023/04/15 06:42:17;;;;;;;23.45;14.05;;;5.50;99.90;;;;;;4983351;28;20118;-76
2023/04/15 06:44:43;;;;;;;26.92;15.82;;;5.60;99.90;;;;;;4971119;28;20132;-76
2023/04/15 06:47:09;;;;;;;28.88;14.95;;;5.70;99.90;;;;;;4972357;28;20034;-76
2023/04/15 06:49:34;;;;;;;26.13;14.23;;;5.90;99.90;;;;;;4956455;28;20034;-76
2023/04/15 06:52:01;;;;;;;29.67;14.98;;;5.80;99.90;;;;;;4972848;28;20042;-76
2023/04/15 06:54:26;;;;;;;23.70;13.70;;;6.00;99.90;;;;;;4923856;28;20141;-76
2023/04/15 06:56:58;;;;;;;23.40;13.20;;;6.00;99.90;;;;;;4955019;28;20196;-76
2023/04/15 06:59:24;;;;;;;22.77;13.52;;;6.10;99.90;;;;;;4940782;28;20440;-76
2023/04/15 07:01:50;;;;;;;20.92;12.70;;;6.10;99.90;;;;;;4955873;28;20057;-76
2023/04/15 07:04:15;;;;;;;26.90;13.27;;;6.20;99.90;;;;;;4955394;28;20042;-75
2023/04/15 07:06:41;;;;;;;27.58;14.43;;;6.20;99.90;;;;;;4956057;28;20041;-76
2023/04/15 07:09:07;;;;;;;24.77;12.90;;;6.20;99.90;;;;;;4938818;28;20047;-76
2023/04/15 07:11:33;;;;;;;20.58;11.20;;;6.30;99.90;;;;;;4955834;28;20043;-76
2023/04/15 07:13:58;;;;;;;19.55;11.45;;;6.40;99.90;;;;;;4940958;28;20038;-76
2023/04/15 07:16:24;;;;;;;21.67;11.07;;;6.50;99.90;;;;;;4953426;28;20038;-75
2023/04/15 07:18:50;;;;;;;15.07;10.02;;;6.60;99.90;;;;;;4972437;28;20045;-76
2023/04/15 07:21:16;;;;;;;15.88;10.02;;;6.70;99.90;;;;;;4938937;28;20047;-76
2023/04/15 07:23:42;;;;;;;12.90;8.45;;;6.80;99.90;;;;;;4955531;28;20054;-76
2023/04/15 07:26:08;;;;;;;15.35;8.55;;;6.90;99.90;;;;;;4955134;28;20031;-76
2023/04/15 07:28:34;;;;;;;16.30;9.10;;;7.10;99.90;;;;;;4955510;28;20115;-76
2023/04/15 07:31:00;;;;;;;14.32;8.18;;;7.10;99.90;;;;;;4937223;28;20055;-76
2023/04/15 07:33:25;;;;;;;10.98;7.28;;;7.20;99.90;;;;;;4960945;28;20034;-76
2023/04/15 07:35:52;;;;;;;13.70;7.32;;;7.30;99.90;;;;;;4962841;28;20044;-76
2023/04/15 07:38:17;;;;;;;13.00;7.55;;;7.30;99.90;;;;;;4979260;28;20042;-76
2023/04/15 07:40:43;;;;;;;11.45;7.00;;;7.40;99.90;;;;;;4983510;28;20038;-76
2023/04/15 07:43:09;;;;;;;12.95;7.38;;;7.50;99.90;;;;;;4965584;28;20077;-76
2023/04/15 07:45:35;;;;;;;11.38;6.60;;;7.50;99.90;;;;;;4973634;28;20046;-75
2023/04/15 07:48:01;;;;;;;11.27;6.93;;;7.60;99.90;;;;;;4960031;28;20140;-76
2023/04/15 07:50:27;;;;;;;11.18;7.38;;;7.70;99.90;;;;;;4964378;28;20593;-76
2023/04/15 07:52:53;;;;;;;9.95;6.75;;;7.80;99.90;;;;;;4980391;28;20039;-75
2023/04/15 07:55:21;;;;;;;11.23;6.85;;;7.90;99.90;;;;;;4959290;28;20038;-76
2023/04/15 07:57:47;;;;;;;11.65;7.47;;;8.00;99.90;;;;;;4972733;28;20044;-76
2023/04/15 08:00:13;;;;;;;10.52;6.65;;;8.10;99.90;;;;;;4959209;28;20431;-76
2023/04/15 08:02:40;;;;;;;9.65;6.65;;;8.10;99.90;;;;;;4958514;28;20483;-76
2023/04/15 08:05:06;;;;;;;11.57;7.28;;;8.30;99.90;;;;;;4943601;28;20049;-76
2023/04/15 08:07:32;;;;;;;11.20;6.47;;;8.30;99.90;;;;;;4943653;28;20042;-76
2023/04/15 08:09:58;;;;;;;10.23;6.18;;;8.30;99.90;;;;;;4954520;28;20580;-76
2023/04/15 08:12:24;;;;;;;8.63;5.90;;;8.40;99.90;;;;;;4949068;28;20040;-76
2023/04/15 08:14:51;;;;;;;11.57;6.60;;;8.40;99.90;;;;;;4979246;28;20085;-76
2023/04/15 08:17:16;;;;;;;9.60;5.78;;;8.50;99.90;;;;;;4973386;28;20088;-76
2023/04/15 08:19:42;;;;;;;9.77;6.40;;;8.50;99.90;;;;;;4959608;28;20046;-76
2023/04/15 08:22:08;;;;;;;9.45;6.38;;;8.50;99.90;;;;;;4958392;28;20050;-76
2023/04/15 08:24:34;;;;;;;13.57;6.57;;;8.50;99.90;;;;;;4959234;28;20054;-76
2023/04/15 08:27:03;;;;;;;9.00;5.07;;;8.60;99.90;;;;;;4927383;28;20046;-76
2023/04/15 08:29:28;;;;;;;7.57;5.10;;;8.60;99.90;;;;;;4974541;28;20042;-76
2023/04/15 08:31:54;;;;;;;8.13;4.78;;;8.80;99.90;;;;;;4975422;28;20039;-76
2023/04/15 08:34:20;;;;;;;8.57;4.90;;;8.80;99.90;;;;;;4958727;28;20042;-76
2023/04/15 08:36:45;;;;;;;7.60;4.82;;;8.90;99.90;;;;;;4959335;28;20122;-76
2023/04/15 08:39:11;;;;;;;6.20;4.38;;;8.90;99.90;;;;;;4927703;28;20096;-76
2023/04/15 08:41:46;;;;;;;7.90;4.70;;;9.00;99.90;;;;;;4975505;28;20034;-75
2023/04/15 08:44:13;;;;;;;8.15;4.72;;;9.10;99.90;;;;;;4975704;28;20113;-76
2023/04/15 08:46:41;;;;;;;7.55;5.10;;;9.10;99.90;;;;;;4958173;28;20035;-76
2023/04/15 08:49:11;;;;;;;8.15;4.32;;;9.30;99.90;;;;;;4943279;28;20050;-76
2023/04/15 08:51:37;;;;;;;8.68;4.70;;;9.30;99.90;;;;;;4973969;28;20043;-76
2023/04/15 08:54:03;;;;;;;6.43;4.78;;;9.20;99.90;;;;;;4979217;28;20084;-76
2023/04/15 08:56:33;;;;;;;7.00;4.50;;;9.00;99.90;;;;;;4962805;28;20054;-76
2023/04/15 08:58:59;;;;;;;7.10;5.05;;;8.90;99.90;;;;;;4958130;28;20622;-76
2023/04/15 09:01:25;;;;;;;5.88;4.28;;;8.70;99.90;;;;;;4941327;28;20121;-76
2023/04/15 09:03:55;;;;;;;5.43;3.85;;;8.70;99.90;;;;;;4973299;28;20058;-76
2023/04/15 09:06:21;;;;;;;7.95;4.30;;;8.70;99.90;;;;;;4956931;28;20034;-76
2023/04/15 09:08:48;;;;;;;9.18;4.38;;;8.70;99.90;;;;;;4990716;28;20038;-76
2023/04/15 09:11:14;;;;;;;8.45;4.20;;;8.80;99.90;;;;;;4972424;28;20121;-76
2023/04/15 09:13:39;;;;;;;7.68;4.55;;;8.80;99.90;;;;;;4957786;28;20038;-76
2023/04/15 09:16:06;;;;;;;7.38;3.92;;;8.80;99.90;;;;;;4974448;28;20056;-76
2023/04/15 09:18:34;;;;;;;8.45;4.65;;;8.90;99.90;;;;;;4957338;28;20046;-76
2023/04/15 09:21:04;;;;;;;6.18;4.20;;;8.80;99.90;;;;;;4974243;28;20062;-75
2023/04/15 09:23:31;;;;;;;7.10;4.25;;;8.90;99.90;;;;;;4958420;28;20054;-76
2023/04/15 09:25:57;;;;;;;5.40;3.92;;;8.90;99.90;;;;;;4956073;28;20084;-76
2023/04/15 09:28:25;;;;;;;5.50;3.88;;;8.80;99.90;;;;;;4973416;28;20062;-76
2023/04/15 09:30:56;;;;;;;6.47;4.05;;;8.80;99.90;;;;;;4973416;28;20076;-76
2023/04/15 09:33:23;;;;;;;5.07;3.60;;;8.80;99.90;;;;;;4974176;28;20104;-76
2023/04/15 09:36:02;;;;;;;7.45;3.85;;;8.90;99.90;;;;;;4973076;28;20089;-76
2023/04/15 09:38:28;;;;;;;4.88;3.53;;;9.10;99.90;;;;;;4985318;28;20038;-76
2023/04/15 09:40:54;;;;;;;5.75;3.90;;;9.20;99.90;;;;;;4959133;28;20046;-76
2023/04/15 09:43:20;;;;;;;5.55;3.75;;;9.40;99.90;;;;;;4958451;28;20065;-76
2023/04/15 09:45:47;;;;;;;5.57;3.78;;;9.40;99.90;;;;;;4973577;28;20045;-76
2023/04/15 09:48:22;;;;;;;6.03;3.90;;;9.50;99.90;;;;;;4973190;28;20038;-76
2023/04/15 09:50:49;;;;;;;6.35;3.60;;;9.50;99.90;;;;;;4973999;28;20431;-76
2023/04/15 09:53:16;;;;;;;5.30;3.53;;;9.40;99.90;;;;;;4941622;28;20031;-76
2023/04/15 09:55:50;;;;;;;5.53;3.30;;;9.30;99.90;;;;;;4950122;28;20034;-76
2023/04/15 09:58:23;;;;;;;7.18;3.50;;;9.20;99.90;;;;;;4957496;28;20125;-76
2023/04/15 10:00:50;;;;;;;5.05;3.40;;;9.30;99.90;;;;;;4955718;28;20132;-76
2023/04/15 10:03:30;;;;;;;5.75;3.45;;;9.30;99.90;;;;;;4973805;28;20435;-76
2023/04/15 10:05:58;;;;;;;4.53;3.60;;;9.20;99.90;;;;;;4967944;28;20508;-76
2023/04/15 10:08:29;;;;;;;6.07;3.45;;;9.20;99.90;;;;;;4956576;28;20041;-76
2023/04/15 10:10:55;;;;;;;7.93;3.70;;;9.20;99.90;;;;;;4957176;28;20042;-76
2023/04/15 10:13:24;;;;;;;4.43;3.22;;;9.20;99.90;;;;;;4974893;28;20137;-76
2023/04/15 10:15:56;;;;;;;8.80;3.45;;;9.10;99.90;;;;;;4955919;28;20043;-76
2023/04/15 10:18:25;;;;;;;4.65;2.90;;;9.10;99.90;;;;;;4956591;28;20117;-76
2023/04/15 10:20:52;;;;;;;6.72;3.15;;;9.10;99.90;;;;;;4973322;28;20384;-76
2023/04/15 10:23:19;;;;;;;6.50;3.20;;;9.10;99.90;;;;;;4956431;28;20057;-76
2023/04/15 10:25:50;;;;;;;6.75;3.47;;;9.10;99.90;;;;;;4954113;28;20062;-76
2023/04/15 10:28:16;;;;;;;5.80;3.75;;;9.20;99.90;;;;;;4971795;28;20050;-76
2023/04/15 10:30:42;;;;;;;5.15;3.10;;;9.20;99.90;;;;;;4955129;28;20046;-76
2023/04/15 10:33:10;;;;;;;5.32;3.40;;;9.20;99.90;;;;;;4956334;28;20057;-76
2023/04/15 10:35:36;;;;;;;6.93;3.08;;;9.20;99.90;;;;;;4972681;28;20496;-76
2023/04/15 10:38:22;;;;;;;4.72;2.83;;;9.10;99.90;;;;;;4971425;28;20042;-76
2023/04/15 10:40:49;;;;;;;4.13;2.70;;;9.20;99.90;;;;;;4970875;28;20046;-76
2023/04/15 10:43:26;;;;;;;6.03;3.10;;;9.10;99.90;;;;;;4958707;28;20041;-76
2023/04/15 10:45:52;;;;;;;5.10;3.00;;;9.10;99.90;;;;;;4953027;28;20039;-76
2023/04/15 10:48:18;;;;;;;6.65;3.25;;;9.10;99.90;;;;;;4977839;28;20037;-76
2023/04/15 10:50:56;;;;;;;6.20;3.10;;;9.00;99.90;;;;;;4963409;28;20502;-76
2023/04/15 10:53:31;;;;;;;8.32;3.28;;;9.10;99.90;;;;;;4955251;28;20093;-76
2023/04/15 10:55:57;;;;;;;6.95;3.35;;;9.10;99.90;;;;;;4971071;28;20038;-76
2023/04/15 10:58:39;;;;;;;11.05;3.55;;;9.10;99.90;;;;;;4957271;28;20066;-76
2023/04/15 11:01:05;;;;;;;;;;;9.10;99.90;;;;;;4959441;28;20503;-76
2023/04/15 11:03:39;;;;;;;7.60;3.58;;;9.10;99.90;;;;;;4955409;28;19925;-76
2023/04/15 11:06:06;;;;;;;5.72;3.17;;;9.10;99.90;;;;;;4954711;28;20046;-76
2023/04/15 11:09:04;;;;;;;5.30;3.17;;;9.00;99.90;;;;;;4956172;28;20070;-76
2023/04/15 11:12:08;;;;;;;3.90;2.70;;;9.00;99.90;;;;;;4940508;28;20034;-76
2023/04/15 11:14:40;;;;;;;6.13;3.00;;;9.00;99.90;;;;;;4954441;28;20038;-76
2023/04/15 11:17:06;;;;;;;9.10;3.65;;;9.10;99.90;;;;;;4941218;28;20045;-76
2023/04/15 11:19:37;;;;;;;4.60;2.95;;;9.10;99.90;;;;;;4941665;28;20093;-76
2023/04/15 11:22:10;;;;;;;6.15;3.10;;;9.20;99.90;;;;;;4976624;28;20520;-76
2023/04/15 11:24:45;;;;;;;4.85;2.63;;;9.10;99.90;;;;;;4981670;28;20446;-76
2023/04/15 11:27:20;;;;;;;5.60;2.90;;;9.10;99.90;;;;;;4958842;28;20428;-76
2023/04/15 11:29:46;;;;;;;3.67;2.80;;;9.10;99.90;;;;;;4976713;28;20424;-76
2023/04/15 11:32:11;;;;;;;4.65;2.90;;;9.00;99.90;;;;;;4976176;28;20030;-76
2023/04/15 11:34:37;;;;;;;4.65;2.72;;;9.00;99.90;;;;;;4947862;28;20049;-76
2023/04/15 11:37:05;;;;;;;7.20;2.70;;;9.00;99.90;;;;;;4925560;28;20063;-76
2023/04/15 11:39:31;;;;;;;6.25;2.83;;;9.00;99.90;;;;;;4950363;28;20133;-77
2023/04/15 11:41:57;;;;;;;8.68;2.63;;;9.10;99.90;;;;;;4958311;28;20133;-77
2023/04/15 11:44:22;;;;;;;4.75;2.85;;;9.10;99.90;;;;;;4958650;28;20125;-76
2023/04/15 11:46:48;;;;;;;4.30;2.60;;;9.10;99.90;;;;;;4934965;28;20026;-76
2023/04/15 11:49:32;;;;;;;6.95;3.00;;;9.10;99.90;;;;;;4928095;28;20042;-77
2023/04/15 11:51:59;;;;;;;3.55;2.67;;;9.30;99.90;;;;;;4976465;28;20514;-76
2023/04/15 11:54:25;;;;;;;4.35;3.08;;;9.20;99.90;;;;;;4943252;28;20042;-77
2023/04/15 11:56:52;;;;;;;9.52;3.30;;;9.30;99.90;;;;;;4974866;28;20594;-76
2023/04/15 11:59:18;;;;;;;5.00;3.38;;;9.30;99.90;;;;;;4954738;28;20492;-76
2023/04/15 12:01:45;;;;;;;6.63;3.28;;;9.20;99.90;;;;;;4939548;28;20092;-77
2023/04/15 12:04:20;;;;;;;5.43;3.42;;;9.10;99.90;;;;;;4984829;28;20034;-77
2023/04/15 12:06:46;;;;;;;5.35;3.45;;;9.10;99.90;;;;;;4956374;28;20048;-77
2023/04/15 12:09:14;;;;;;;5.85;2.75;;;9.20;99.90;;;;;;4959312;28;20121;-77
2023/04/15 12:11:51;;;;;;;4.63;2.75;;;9.10;99.90;;;;;;4973212;28;20399;-77
2023/04/15 12:14:23;;;;;;;3.17;2.33;;;9.10;99.90;;;;;;4958242;28;20535;-77
2023/04/15 12:17:03;;;;;;;5.18;2.85;;;9.10;99.90;;;;;;4975132;28;20093;-77
2023/04/15 12:19:31;;;;;;;4.63;2.70;;;9.20;99.90;;;;;;4968295;28;20052;-76
2023/04/15 12:22:03;;;;;;;7.32;2.47;;;9.20;99.90;;;;;;4960614;28;20057;-76
2023/04/15 12:24:32;;;;;;;8.40;2.90;;;9.30;99.90;;;;;;4983124;28;20076;-76
2023/04/15 12:27:07;;;;;;;6.03;3.20;;;9.30;99.90;;;;;;4960291;28;20121;-77
2023/04/15 12:29:35;;;;;;;4.40;3.25;;;9.20;99.90;;;;;;4957478;28;20065;-77
2023/04/15 12:32:15;;;;;;;7.75;3.10;;;9.20;99.90;;;;;;4957714;28;20377;-76
2023/04/15 12:34:49;;;;;;;4.35;2.33;;;9.10;99.90;;;;;;4958545;28;20141;-76
2023/04/15 12:37:15;;;;;;;3.85;2.22;;;9.00;99.90;;;;;;4958437;28;20054;-76
2023/04/15 12:39:43;;;;;;;4.57;2.35;;;9.00;99.90;;;;;;4982832;28;20496;-76
2023/04/15 12:42:10;;;;;;;6.30;2.70;;;9.00;99.90;;;;;;4957773;28;20450;-76
2023/04/15 12:44:37;;;;;;;5.10;2.78;;;9.00;99.90;;;;;;4974967;28;20506;-76
2023/04/15 12:47:03;;;;;;;6.82;3.47;;;9.10;99.90;;;;;;4927176;28;20045;-76